首页
METAR-TAF:

METAR-TAF

机场 :

丹佛國際機場

丹佛, 科羅拉多州, 美国

纬度: 39-49-58N, 经度: 104-39-27W, 海拔: 1655米

当前天气观测

该预报发布于42分钟前的12:53 UTC
风速10节,风向
温度 0°C
湿度 93%
气压 1021 hPa
能見度: 14.5公里
阴天层高于600英尺
小雪

METAR: KDEN 171253Z 08010KT 9SM -SN OVC006 00/M01 A3015 RMK AO2 SLP194 P0000 T00001011

时间: 06:35 (13:35 UTC)

预报

该预报发布于19分钟前的13:16 UTC
预报有效从17日的 13点(UTC)到 18日的 18点(UTC)
风速10节,风向
能見度: 9.7公里
阴天层高于600英尺
小雪
短暂存在
从 17日的 13点(UTC)到 17日的 15点(UTC)
能見度: 4.8公里
阴天层高于500英尺
(小) 冻, 毛毛雨, 雪, 轻雾
从 17日的 1500点(UTC)
风速10节,风向东转东北
能見度: 3.2公里
阴天层高于500英尺
(小) 冻, 毛毛雨, 雪, 轻雾
从 17日的 1800点(UTC)
风速10节,风向
能見度: 2.4公里
阴天层高于500英尺
小雪, 轻雾
从 18日的 0200点(UTC)
风速6节,风向东北
能見度: 1.6公里
散云层高于700英尺
阴天层高于1500英尺
小雪, 轻雾
从 18日的 0600点(UTC)
风速6节,风向东转东南
能見度: 10公里
阴天层高于1500英尺
几率 30%
从 18日的 06点(UTC)到 18日的 09点(UTC)
能見度: 1.6公里
小雪, 轻雾
从 18日的 1200点(UTC)
风速6节,风向南转西南
能見度: 10公里
散云层高于3000英尺

TAF: KDEN 171316Z 1713/1818 09010KT 6SM -SN OVC006 TEMPO 1713/1715 3SM -FZDZSN BR OVC005 FM171500 07010KT 2SM -FZDZSN BR OVC005 FM171800 09010KT 1 1/2SM -SN BR OVC005 FM180200 05006KT 3SM -SN BR SCT007 OVC015 FM180600 11006KT P6SM OVC015 PROB30 1806/1809 4SM -SN BR FM181200 21006KT P6SM SCT030

超过4000个机场的气象观测和天气预报(METAR&TAF报告)。

可查询的气象台以黄色和红色小点在地图上表示。

将鼠标移到小点上方,可查看气象台名称。

然后点击查看天气观测和预报。

如需切换地图:点击带黑十字的绿色按钮放大地图;点击带横线的绿色按钮缩小地图;或者点击绿色箭头查看邻近地区的地图。


METAR-TAF: